sensor_id;sensor_type;location;lat;lon;timestamp;temperature;humidity
2889;DHT22;1453;42.708;23.282;2024-03-23T00:54:03;5.60;99.90
2889;DHT22;1453;42.708;23.282;2024-03-23T00:56:29;5.50;99.90
2889;DHT22;1453;42.708;23.282;2024-03-23T00:58:55;5.50;99.90
2889;DHT22;1453;42.708;23.282;2024-03-23T01:01:21;5.50;99.90
2889;DHT22;1453;42.708;23.282;2024-03-23T01:03:47;5.30;99.90
2889;DHT22;1453;42.708;23.282;2024-03-23T01:06:13;5.20;99.90
2889;DHT22;1453;42.708;23.282;2024-03-23T01:08:39;5.10;99.90
2889;DHT22;1453;42.708;23.282;2024-03-23T01:11:04;5.20;99.90
2889;DHT22;1453;42.708;23.282;2024-03-23T01:13:30;5.20;99.90
2889;DHT22;1453;42.708;23.282;2024-03-23T01:15:57;5.10;99.90
2889;DHT22;1453;42.708;23.282;2024-03-23T01:18:23;5.00;99.90
2889;DHT22;1453;42.708;23.282;2024-03-23T01:20:51;5.00;99.90
2889;DHT22;1453;42.708;23.282;2024-03-23T01:23:17;4.80;99.90
2889;DHT22;1453;42.708;23.282;2024-03-23T01:25:43;4.70;99.90
2889;DHT22;1453;42.708;23.282;2024-03-23T01:28:09;4.60;99.90
2889;DHT22;1453;42.708;23.282;2024-03-23T01:30:35;4.60;99.90
2889;DHT22;1453;42.708;23.282;2024-03-23T01:33:02;4.50;99.90
2889;DHT22;1453;42.708;23.282;2024-03-23T01:35:31;4.30;99.90
2889;DHT22;1453;42.708;23.282;2024-03-23T01:37:56;4.20;99.90
2889;DHT22;1453;42.708;23.282;2024-03-23T01:40:22;4.20;99.90
2889;DHT22;1453;42.708;23.282;2024-03-23T01:42:58;4.20;99.90
2889;DHT22;1453;42.708;23.282;2024-03-23T01:45:29;4.00;99.90
2889;DHT22;1453;42.708;23.282;2024-03-23T01:47:56;4.10;99.90
2889;DHT22;1453;42.708;23.282;2024-03-23T01:50:22;4.00;99.90
2889;DHT22;1453;42.708;23.282;2024-03-23T01:52:49;4.10;99.90
2889;DHT22;1453;42.708;23.282;2024-03-23T01:55:16;4.10;99.90
2889;DHT22;1453;42.708;23.282;2024-03-23T01:57:42;4.10;99.90
2889;DHT22;1453;42.708;23.282;2024-03-23T02:00:08;4.00;99.90
2889;DHT22;1453;42.708;23.282;2024-03-23T02:02:44;3.80;99.90
2889;DHT22;1453;42.708;23.282;2024-03-23T02:05:12;3.70;99.90
2889;DHT22;1453;42.708;23.282;2024-03-23T02:07:42;3.80;99.90
2889;DHT22;1453;42.708;23.282;2024-03-23T02:10:09;3.80;99.90
2889;DHT22;1453;42.708;23.282;2024-03-23T02:12:36;3.70;99.90
2889;DHT22;1453;42.708;23.282;2024-03-23T02:15:03;3.60;99.90
2889;DHT22;1453;42.708;23.282;2024-03-23T02:17:30;3.50;99.90
2889;DHT22;1453;42.708;23.282;2024-03-23T02:20:00;3.50;99.90
2889;DHT22;1453;42.708;23.282;2024-03-23T02:22:39;3.60;99.90
2889;DHT22;1453;42.708;23.282;2024-03-23T02:25:06;3.60;99.90
2889;DHT22;1453;42.708;23.282;2024-03-23T02:27:32;3.50;99.90
2889;DHT22;1453;42.708;23.282;2024-03-23T02:30:00;3.30;99.90
2889;DHT22;1453;42.708;23.282;2024-03-23T02:32:26;3.20;99.90
2889;DHT22;1453;42.708;23.282;2024-03-23T02:34:52;3.20;99.90
2889;DHT22;1453;42.708;23.282;2024-03-23T02:37:18;3.20;99.90
2889;DHT22;1453;42.708;23.282;2024-03-23T02:39:44;3.00;99.90
2889;DHT22;1453;42.708;23.282;2024-03-23T02:42:09;3.20;99.90
2889;DHT22;1453;42.708;23.282;2024-03-23T02:44:35;3.20;99.90
2889;DHT22;1453;42.708;23.282;2024-03-23T02:47:01;3.20;99.90
2889;DHT22;1453;42.708;23.282;2024-03-23T02:49:28;3.20;99.90
2889;DHT22;1453;42.708;23.282;2024-03-23T02:51:53;3.10;99.90
2889;DHT22;1453;42.708;23.282;2024-03-23T02:54:19;3.00;99.90
2889;DHT22;1453;42.708;23.282;2024-03-23T02:56:45;3.10;99.90
2889;DHT22;1453;42.708;23.282;2024-03-23T02:59:11;3.30;99.90
2889;DHT22;1453;42.708;23.282;2024-03-23T03:01:37;3.30;99.90
2889;DHT22;1453;42.708;23.282;2024-03-23T03:04:03;3.20;99.90
2889;DHT22;1453;42.708;23.282;2024-03-23T03:06:30;3.30;99.90
2889;DHT22;1453;42.708;23.282;2024-03-23T03:08:56;3.40;99.90
2889;DHT22;1453;42.708;23.282;2024-03-23T03:11:22;3.40;99.90
2889;DHT22;1453;42.708;23.282;2024-03-23T03:13:48;3.40;99.90
2889;DHT22;1453;42.708;23.282;2024-03-23T03:16:14;3.50;99.90
2889;DHT22;1453;42.708;23.282;2024-03-23T03:18:40;3.50;99.90
2889;DHT22;1453;42.708;23.282;2024-03-23T03:21:07;3.50;99.90
2889;DHT22;1453;42.708;23.282;2024-03-23T03:23:39;3.40;99.90
2889;DHT22;1453;42.708;23.282;2024-03-23T03:26:06;3.40;99.90
2889;DHT22;1453;42.708;23.282;2024-03-23T03:28:32;3.30;99.90
2889;DHT22;1453;42.708;23.282;2024-03-23T03:30:59;3.30;99.90
2889;DHT22;1453;42.708;23.282;2024-03-23T03:33:26;3.20;99.90
2889;DHT22;1453;42.708;23.282;2024-03-23T03:35:52;3.30;99.90
2889;DHT22;1453;42.708;23.282;2024-03-23T03:38:19;3.30;99.90
2889;DHT22;1453;42.708;23.282;2024-03-23T03:40:45;3.60;99.90
2889;DHT22;1453;42.708;23.282;2024-03-23T03:43:11;3.60;99.90
2889;DHT22;1453;42.708;23.282;2024-03-23T03:45:37;3.60;99.90
2889;DHT22;1453;42.708;23.282;2024-03-23T03:48:03;3.60;99.90
2889;DHT22;1453;42.708;23.282;2024-03-23T03:50:30;3.50;99.90
2889;DHT22;1453;42.708;23.282;2024-03-23T03:52:56;3.50;99.90
2889;DHT22;1453;42.708;23.282;2024-03-23T03:55:22;3.60;99.90
2889;DHT22;1453;42.708;23.282;2024-03-23T03:57:48;3.60;99.90
2889;DHT22;1453;42.708;23.282;2024-03-23T04:00:14;3.70;99.90
2889;DHT22;1453;42.708;23.282;2024-03-23T04:02:41;3.70;99.90
2889;DHT22;1453;42.708;23.282;2024-03-23T04:05:07;3.80;99.90
2889;DHT22;1453;42.708;23.282;2024-03-23T04:07:33;3.90;99.90
2889;DHT22;1453;42.708;23.282;2024-03-23T04:09:59;3.90;99.90
2889;DHT22;1453;42.708;23.282;2024-03-23T04:12:25;3.80;99.90
2889;DHT22;1453;42.708;23.282;2024-03-23T04:14:51;3.80;99.90
2889;DHT22;1453;42.708;23.282;2024-03-23T04:17:17;3.80;99.90
2889;DHT22;1453;42.708;23.282;2024-03-23T04:19:44;3.80;99.90
2889;DHT22;1453;42.708;23.282;2024-03-23T04:22:10;3.70;99.90
2889;DHT22;1453;42.708;23.282;2024-03-23T04:24:36;3.60;99.90
2889;DHT22;1453;42.708;23.282;2024-03-23T04:27:02;3.50;99.90
2889;DHT22;1453;42.708;23.282;2024-03-23T04:29:28;3.40;99.90
2889;DHT22;1453;42.708;23.282;2024-03-23T04:31:54;3.60;99.90
2889;DHT22;1453;42.708;23.282;2024-03-23T04:34:21;3.50;99.90
2889;DHT22;1453;42.708;23.282;2024-03-23T04:36:48;3.60;99.90
2889;DHT22;1453;42.708;23.282;2024-03-23T04:39:14;3.50;99.90
2889;DHT22;1453;42.708;23.282;2024-03-23T04:41:40;3.90;99.90
2889;DHT22;1453;42.708;23.282;2024-03-23T04:44:06;3.60;99.90
2889;DHT22;1453;42.708;23.282;2024-03-23T04:46:32;3.70;99.90
2889;DHT22;1453;42.708;23.282;2024-03-23T04:48:57;3.60;99.90
2889;DHT22;1453;42.708;23.282;2024-03-23T04:51:24;3.50;99.90
2889;DHT22;1453;42.708;23.282;2024-03-23T04:53:50;3.60;99.90
2889;DHT22;1453;42.708;23.282;2024-03-23T04:56:17;3.50;99.90
2889;DHT22;1453;42.708;23.282;2024-03-23T04:58:43;3.50;99.90
2889;DHT22;1453;42.708;23.282;2024-03-23T05:01:10;3.70;99.90
2889;DHT22;1453;42.708;23.282;2024-03-23T05:03:36;3.70;99.90
2889;DHT22;1453;42.708;23.282;2024-03-23T05:06:02;3.80;99.90
2889;DHT22;1453;42.708;23.282;2024-03-23T05:08:28;3.80;99.90
2889;DHT22;1453;42.708;23.282;2024-03-23T05:10:55;3.80;99.90
2889;DHT22;1453;42.708;23.282;2024-03-23T05:13:21;3.90;99.90
2889;DHT22;1453;42.708;23.282;2024-03-23T05:15:56;3.80;99.90
2889;DHT22;1453;42.708;23.282;2024-03-23T05:18:22;3.80;99.90
2889;DHT22;1453;42.708;23.282;2024-03-23T05:20:48;3.70;99.90
2889;DHT22;1453;42.708;23.282;2024-03-23T05:23:14;3.80;99.90
2889;DHT22;1453;42.708;23.282;2024-03-23T05:25:41;3.80;99.90
2889;DHT22;1453;42.708;23.282;2024-03-23T05:28:06;3.90;99.90
2889;DHT22;1453;42.708;23.282;2024-03-23T05:30:32;4.00;99.90
2889;DHT22;1453;42.708;23.282;2024-03-23T05:32:58;4.10;99.90
2889;DHT22;1453;42.708;23.282;2024-03-23T05:35:24;4.20;99.90
2889;DHT22;1453;42.708;23.282;2024-03-23T05:37:50;4.30;99.90
2889;DHT22;1453;42.708;23.282;2024-03-23T05:40:16;4.30;99.90
2889;DHT22;1453;42.708;23.282;2024-03-23T05:42:42;4.30;99.90
2889;DHT22;1453;42.708;23.282;2024-03-23T05:45:08;4.50;99.90
2889;DHT22;1453;42.708;23.282;2024-03-23T05:47:34;4.60;99.90
2889;DHT22;1453;42.708;23.282;2024-03-23T05:50:00;4.40;99.90
2889;DHT22;1453;42.708;23.282;2024-03-23T05:52:27;4.50;99.90
2889;DHT22;1453;42.708;23.282;2024-03-23T05:54:53;4.50;99.90
2889;DHT22;1453;42.708;23.282;2024-03-23T05:57:19;4.60;99.90
2889;DHT22;1453;42.708;23.282;2024-03-23T05:59:45;4.70;99.90
2889;DHT22;1453;42.708;23.282;2024-03-23T06:02:11;4.90;99.90
2889;DHT22;1453;42.708;23.282;2024-03-23T06:04:37;4.90;99.90
2889;DHT22;1453;42.708;23.282;2024-03-23T06:07:04;4.80;99.90
2889;DHT22;1453;42.708;23.282;2024-03-23T06:09:32;4.70;99.90
2889;DHT22;1453;42.708;23.282;2024-03-23T06:11:58;4.80;99.90
2889;DHT22;1453;42.708;23.282;2024-03-23T06:14:24;4.90;99.90
2889;DHT22;1453;42.708;23.282;2024-03-23T06:16:49;5.00;99.90
2889;DHT22;1453;42.708;23.282;2024-03-23T06:19:15;5.10;99.90
2889;DHT22;1453;42.708;23.282;2024-03-23T06:21:45;5.10;99.90
2889;DHT22;1453;42.708;23.282;2024-03-23T06:24:11;5.20;99.90
2889;DHT22;1453;42.708;23.282;2024-03-23T06:26:38;5.40;99.90
2889;DHT22;1453;42.708;23.282;2024-03-23T06:29:04;5.60;99.90
2889;DHT22;1453;42.708;23.282;2024-03-23T06:31:31;5.80;99.90
2889;DHT22;1453;42.708;23.282;2024-03-23T06:33:57;6.00;99.90
2889;DHT22;1453;42.708;23.282;2024-03-23T06:36:23;6.30;99.90
2889;DHT22;1453;42.708;23.282;2024-03-23T06:38:49;7.20;99.90
2889;DHT22;1453;42.708;23.282;2024-03-23T06:41:15;8.00;99.90
2889;DHT22;1453;42.708;23.282;2024-03-23T06:43:41;8.50;95.00
2889;DHT22;1453;42.708;23.282;2024-03-23T06:46:07;9.40;94.30
2889;DHT22;1453;42.708;23.282;2024-03-23T06:48:33;10.30;88.10
2889;DHT22;1453;42.708;23.282;2024-03-23T06:50:59;10.70;82.60
2889;DHT22;1453;42.708;23.282;2024-03-23T06:53:25;11.10;79.70
2889;DHT22;1453;42.708;23.282;2024-03-23T06:55:54;11.80;78.20
2889;DHT22;1453;42.708;23.282;2024-03-23T06:58:21;11.50;74.40
2889;DHT22;1453;42.708;23.282;2024-03-23T07:00:49;12.60;73.40
2889;DHT22;1453;42.708;23.282;2024-03-23T07:03:16;12.80;69.60
2889;DHT22;1453;42.708;23.282;2024-03-23T07:05:42;13.30;67.90
2889;DHT22;1453;42.708;23.282;2024-03-23T07:08:08;14.10;67.10
2889;DHT22;1453;42.708;23.282;2024-03-23T07:10:34;14.10;62.90
2889;DHT22;1453;42.708;23.282;2024-03-23T07:13:01;13.40;63.30
2889;DHT22;1453;42.708;23.282;2024-03-23T07:15:27;13.20;64.70
2889;DHT22;1453;42.708;23.282;2024-03-23T07:17:53;13.30;64.20
2889;DHT22;1453;42.708;23.282;2024-03-23T07:20:19;14.50;62.40
2889;DHT22;1453;42.708;23.282;2024-03-23T07:22:46;14.70;60.70
2889;DHT22;1453;42.708;23.282;2024-03-23T07:25:13;14.30;61.20
2889;DHT22;1453;42.708;23.282;2024-03-23T07:27:39;15.00;60.20
2889;DHT22;1453;42.708;23.282;2024-03-23T07:30:06;15.40;59.10
2889;DHT22;1453;42.708;23.282;2024-03-23T07:32:32;16.30;58.50
2889;DHT22;1453;42.708;23.282;2024-03-23T07:34:58;16.70;56.90
2889;DHT22;1453;42.708;23.282;2024-03-23T07:37:24;16.50;56.60
2889;DHT22;1453;42.708;23.282;2024-03-23T07:39:51;16.80;56.60
2889;DHT22;1453;42.708;23.282;2024-03-23T07:42:17;16.20;55.70
2889;DHT22;1453;42.708;23.282;2024-03-23T07:44:43;16.30;56.60
2889;DHT22;1453;42.708;23.282;2024-03-23T07:47:09;15.40;57.10
2889;DHT22;1453;42.708;23.282;2024-03-23T07:49:34;15.50;57.80
2889;DHT22;1453;42.708;23.282;2024-03-23T07:52:00;15.90;57.30
2889;DHT22;1453;42.708;23.282;2024-03-23T07:54:26;16.50;56.40
2889;DHT22;1453;42.708;23.282;2024-03-23T07:56:52;17.10;55.70
2889;DHT22;1453;42.708;23.282;2024-03-23T07:59:18;17.30;55.00
2889;DHT22;1453;42.708;23.282;2024-03-23T08:01:45;16.60;53.50
2889;DHT22;1453;42.708;23.282;2024-03-23T08:04:11;15.80;55.00
2889;DHT22;1453;42.708;23.282;2024-03-23T08:06:38;16.70;55.60
2889;DHT22;1453;42.708;23.282;2024-03-23T08:09:04;16.40;54.80
2889;DHT22;1453;42.708;23.282;2024-03-23T08:11:31;17.00;56.30
2889;DHT22;1453;42.708;23.282;2024-03-23T08:13:58;18.10;55.40
2889;DHT22;1453;42.708;23.282;2024-03-23T08:16:24;17.90;52.90
2889;DHT22;1453;42.708;23.282;2024-03-23T08:18:54;17.60;53.00
2889;DHT22;1453;42.708;23.282;2024-03-23T08:21:23;17.50;54.20
2889;DHT22;1453;42.708;23.282;2024-03-23T08:23:50;17.50;52.90
2889;DHT22;1453;42.708;23.282;2024-03-23T08:26:16;17.10;53.50
2889;DHT22;1453;42.708;23.282;2024-03-23T08:28:45;16.70;54.40
2889;DHT22;1453;42.708;23.282;2024-03-23T08:31:12;16.70;53.40
2889;DHT22;1453;42.708;23.282;2024-03-23T08:33:39;18.30;55.00
2889;DHT22;1453;42.708;23.282;2024-03-23T08:36:07;19.10;53.30
2889;DHT22;1453;42.708;23.282;2024-03-23T08:38:34;19.20;51.40
2889;DHT22;1453;42.708;23.282;2024-03-23T08:41:05;19.00;52.90
2889;DHT22;1453;42.708;23.282;2024-03-23T08:43:38;20.10;52.60
2889;DHT22;1453;42.708;23.282;2024-03-23T08:46:06;20.30;51.60
2889;DHT22;1453;42.708;23.282;2024-03-23T08:48:55;19.40;52.30
2889;DHT22;1453;42.708;23.282;2024-03-23T08:51:21;19.80;51.50
2889;DHT22;1453;42.708;23.282;2024-03-23T08:53:46;18.90;50.40
2889;DHT22;1453;42.708;23.282;2024-03-23T08:56:12;18.80;51.70
2889;DHT22;1453;42.708;23.282;2024-03-23T08:58:39;19.40;51.10
2889;DHT22;1453;42.708;23.282;2024-03-23T09:01:10;20.10;50.40
2889;DHT22;1453;42.708;23.282;2024-03-23T09:03:40;19.30;49.90
2889;DHT22;1453;42.708;23.282;2024-03-23T09:06:11;20.40;51.10
2889;DHT22;1453;42.708;23.282;2024-03-23T09:08:38;20.10;50.80
2889;DHT22;1453;42.708;23.282;2024-03-23T09:11:07;20.80;50.50
2889;DHT22;1453;42.708;23.282;2024-03-23T09:13:34;20.40;50.00
2889;DHT22;1453;42.708;23.282;2024-03-23T09:16:01;20.00;49.80
2889;DHT22;1453;42.708;23.282;2024-03-23T09:18:27;20.90;51.20
2889;DHT22;1453;42.708;23.282;2024-03-23T09:20:57;20.70;49.70
2889;DHT22;1453;42.708;23.282;2024-03-23T09:23:23;20.30;49.80
2889;DHT22;1453;42.708;23.282;2024-03-23T09:25:49;21.00;49.70
2889;DHT22;1453;42.708;23.282;2024-03-23T09:28:15;21.70;48.80
2889;DHT22;1453;42.708;23.282;2024-03-23T09:30:41;21.80;47.70
2889;DHT22;1453;42.708;23.282;2024-03-23T09:33:13;21.40;48.60
2889;DHT22;1453;42.708;23.282;2024-03-23T09:35:43;22.10;47.90
2889;DHT22;1453;42.708;23.282;2024-03-23T09:38:12;21.50;47.50
2889;DHT22;1453;42.708;23.282;2024-03-23T09:40:42;21.40;47.80
2889;DHT22;1453;42.708;23.282;2024-03-23T09:43:09;22.50;48.50
2889;DHT22;1453;42.708;23.282;2024-03-23T09:45:39;22.70;47.10
2889;DHT22;1453;42.708;23.282;2024-03-23T09:48:08;22.00;46.40
2889;DHT22;1453;42.708;23.282;2024-03-23T09:50:38;21.70;46.90
2889;DHT22;1453;42.708;23.282;2024-03-23T09:53:08;21.50;48.70
2889;DHT22;1453;42.708;23.282;2024-03-23T09:55:35;21.60;47.30
2889;DHT22;1453;42.708;23.282;2024-03-23T09:58:02;21.90;46.60
2889;DHT22;1453;42.708;23.282;2024-03-23T10:00:28;22.20;46.50
2889;DHT22;1453;42.708;23.282;2024-03-23T10:02:58;22.70;46.20
2889;DHT22;1453;42.708;23.282;2024-03-23T10:05:30;22.90;45.20
2889;DHT22;1453;42.708;23.282;2024-03-23T10:10:44;22.80;46.00
2889;DHT22;1453;42.708;23.282;2024-03-23T10:13:11;21.90;47.00
2889;DHT22;1453;42.708;23.282;2024-03-23T10:15:40;22.40;46.90
2889;DHT22;1453;42.708;23.282;2024-03-23T10:18:19;23.30;46.10
2889;DHT22;1453;42.708;23.282;2024-03-23T10:23:39;24.10;45.70
2889;DHT22;1453;42.708;23.282;2024-03-23T10:29:01;23.60;44.20
2889;DHT22;1453;42.708;23.282;2024-03-23T10:31:33;24.00;45.00
2889;DHT22;1453;42.708;23.282;2024-03-23T10:34:03;22.70;43.50
2889;DHT22;1453;42.708;23.282;2024-03-23T10:36:30;22.60;44.40
2889;DHT22;1453;42.708;23.282;2024-03-23T10:38:56;22.70;44.70
2889;DHT22;1453;42.708;23.282;2024-03-23T10:41:28;23.60;46.00
2889;DHT22;1453;42.708;23.282;2024-03-23T10:43:58;24.30;43.80
2889;DHT22;1453;42.708;23.282;2024-03-23T10:46:25;24.20;44.00
2889;DHT22;1453;42.708;23.282;2024-03-23T10:48:51;24.30;43.50
2889;DHT22;1453;42.708;23.282;2024-03-23T10:51:17;23.80;44.10
2889;DHT22;1453;42.708;23.282;2024-03-23T10:53:44;23.30;43.70
2889;DHT22;1453;42.708;23.282;2024-03-23T10:56:11;23.40;44.70
2889;DHT22;1453;42.708;23.282;2024-03-23T10:58:43;24.50;44.30
2889;DHT22;1453;42.708;23.282;2024-03-23T11:01:11;24.80;42.70
2889;DHT22;1453;42.708;23.282;2024-03-23T11:03:40;23.70;42.00
2889;DHT22;1453;42.708;23.282;2024-03-23T11:06:10;23.80;42.10
2889;DHT22;1453;42.708;23.282;2024-03-23T11:08:38;23.60;41.90
2889;DHT22;1453;42.708;23.282;2024-03-23T11:11:18;23.20;42.00
2889;DHT22;1453;42.708;23.282;2024-03-23T11:13:54;21.80;40.50
2889;DHT22;1453;42.708;23.282;2024-03-23T11:19:34;23.90;43.20
2889;DHT22;1453;42.708;23.282;2024-03-23T11:22:02;25.00;41.90
2889;DHT22;1453;42.708;23.282;2024-03-23T11:24:29;25.20;41.80
2889;DHT22;1453;42.708;23.282;2024-03-23T11:26:55;25.80;41.10
2889;DHT22;1453;42.708;23.282;2024-03-23T11:29:20;25.30;41.30
2889;DHT22;1453;42.708;23.282;2024-03-23T11:34:15;25.30;40.20
2889;DHT22;1453;42.708;23.282;2024-03-23T11:36:42;24.90;40.90
2889;DHT22;1453;42.708;23.282;2024-03-23T11:39:15;23.70;40.80
2889;DHT22;1453;42.708;23.282;2024-03-23T11:41:56;23.80;41.20
2889;DHT22;1453;42.708;23.282;2024-03-23T11:44:26;24.30;41.00
2889;DHT22;1453;42.708;23.282;2024-03-23T11:46:53;25.40;40.70
2889;DHT22;1453;42.708;23.282;2024-03-23T11:49:27;25.50;40.30
2889;DHT22;1453;42.708;23.282;2024-03-23T11:51:55;25.70;39.90
2889;DHT22;1453;42.708;23.282;2024-03-23T11:54:23;25.80;40.20
2889;DHT22;1453;42.708;23.282;2024-03-23T11:57:04;26.40;39.40
2889;DHT22;1453;42.708;23.282;2024-03-23T11:59:40;25.50;38.20
2889;DHT22;1453;42.708;23.282;2024-03-23T12:02:11;25.00;39.50
2889;DHT22;1453;42.708;23.282;2024-03-23T12:04:40;24.90;39.40
2889;DHT22;1453;42.708;23.282;2024-03-23T12:07:19;24.10;39.20
2889;DHT22;1453;42.708;23.282;2024-03-23T12:09:48;24.40;39.60
2889;DHT22;1453;42.708;23.282;2024-03-23T12:12:29;25.10;39.00
2889;DHT22;1453;42.708;23.282;2024-03-23T12:15:24;24.80;40.10
2889;DHT22;1453;42.708;23.282;2024-03-23T12:17:49;25.10;38.70
2889;DHT22;1453;42.708;23.282;2024-03-23T12:20:15;25.00;39.10
2889;DHT22;1453;42.708;23.282;2024-03-23T12:22:41;25.70;40.10
2889;DHT22;1453;42.708;23.282;2024-03-23T12:25:07;25.90;37.90
2889;DHT22;1453;42.708;23.282;2024-03-23T12:27:33;25.00;37.60
2889;DHT22;1453;42.708;23.282;2024-03-23T12:30:00;23.60;38.70
2889;DHT22;1453;42.708;23.282;2024-03-23T12:32:27;23.30;38.30
2889;DHT22;1453;42.708;23.282;2024-03-23T12:34:53;21.80;36.10
2889;DHT22;1453;42.708;23.282;2024-03-23T12:37:19;20.10;36.20
2889;DHT22;1453;42.708;23.282;2024-03-23T12:39:45;20.50;35.60
2889;DHT22;1453;42.708;23.282;2024-03-23T12:42:11;22.70;34.80
2889;DHT22;1453;42.708;23.282;2024-03-23T12:44:37;24.30;34.90
2889;DHT22;1453;42.708;23.282;2024-03-23T12:47:03;26.10;35.00
2889;DHT22;1453;42.708;23.282;2024-03-23T12:49:29;26.50;32.00
2889;DHT22;1453;42.708;23.282;2024-03-23T12:51:56;26.70;31.60
2889;DHT22;1453;42.708;23.282;2024-03-23T12:54:22;22.70;30.60
2889;DHT22;1453;42.708;23.282;2024-03-23T12:56:48;20.00;32.30
2889;DHT22;1453;42.708;23.282;2024-03-23T12:59:14;20.80;34.00
2889;DHT22;1453;42.708;23.282;2024-03-23T13:01:42;19.60;32.60
2889;DHT22;1453;42.708;23.282;2024-03-23T13:04:09;19.00;33.70
2889;DHT22;1453;42.708;23.282;2024-03-23T13:06:35;19.40;34.40
2889;DHT22;1453;42.708;23.282;2024-03-23T13:09:02;20.30;34.70
2889;DHT22;1453;42.708;23.282;2024-03-23T13:11:31;21.80;34.30
2889;DHT22;1453;42.708;23.282;2024-03-23T13:13:57;23.30;34.20
2889;DHT22;1453;42.708;23.282;2024-03-23T13:16:22;23.20;32.10
2889;DHT22;1453;42.708;23.282;2024-03-23T13:18:48;23.50;32.30
2889;DHT22;1453;42.708;23.282;2024-03-23T13:21:15;24.70;32.30
2889;DHT22;1453;42.708;23.282;2024-03-23T13:23:42;25.80;32.00
2889;DHT22;1453;42.708;23.282;2024-03-23T13:26:09;25.70;32.00
2889;DHT22;1453;42.708;23.282;2024-03-23T13:28:35;25.20;31.90
2889;DHT22;1453;42.708;23.282;2024-03-23T13:31:01;24.60;32.20
2889;DHT22;1453;42.708;23.282;2024-03-23T13:33:30;21.90;31.70
2889;DHT22;1453;42.708;23.282;2024-03-23T13:35:58;21.40;33.00
2889;DHT22;1453;42.708;23.282;2024-03-23T13:38:24;20.80;33.60
2889;DHT22;1453;42.708;23.282;2024-03-23T13:41:00;19.80;33.60
2889;DHT22;1453;42.708;23.282;2024-03-23T13:43:27;19.70;34.00
2889;DHT22;1453;42.708;23.282;2024-03-23T13:45:55;20.80;34.30
2889;DHT22;1453;42.708;23.282;2024-03-23T13:48:26;21.90;33.70
2889;DHT22;1453;42.708;23.282;2024-03-23T13:51:04;21.40;34.10
2889;DHT22;1453;42.708;23.282;2024-03-23T13:53:31;23.60;34.50
2889;DHT22;1453;42.708;23.282;2024-03-23T13:56:00;23.10;32.60
2889;DHT22;1453;42.708;23.282;2024-03-23T13:58:26;23.40;33.60
2889;DHT22;1453;42.708;23.282;2024-03-23T14:00:52;22.90;33.40
2889;DHT22;1453;42.708;23.282;2024-03-23T14:03:18;22.50;34.10
2889;DHT22;1453;42.708;23.282;2024-03-23T14:05:45;23.50;34.30
2889;DHT22;1453;42.708;23.282;2024-03-23T14:08:12;23.40;33.70
2889;DHT22;1453;42.708;23.282;2024-03-23T14:10:42;22.70;33.80
2889;DHT22;1453;42.708;23.282;2024-03-23T14:13:08;21.90;34.40
2889;DHT22;1453;42.708;23.282;2024-03-23T14:15:34;20.00;34.60
2889;DHT22;1453;42.708;23.282;2024-03-23T14:18:02;19.60;35.80
2889;DHT22;1453;42.708;23.282;2024-03-23T14:20:28;20.40;35.40
2889;DHT22;1453;42.708;23.282;2024-03-23T14:22:55;20.70;35.00
2889;DHT22;1453;42.708;23.282;2024-03-23T14:25:21;20.00;35.80
2889;DHT22;1453;42.708;23.282;2024-03-23T14:27:49;20.30;35.70
2889;DHT22;1453;42.708;23.282;2024-03-23T14:30:15;20.30;35.70
2889;DHT22;1453;42.708;23.282;2024-03-23T14:32:41;20.60;35.80
2889;DHT22;1453;42.708;23.282;2024-03-23T14:35:07;20.60;36.40
2889;DHT22;1453;42.708;23.282;2024-03-23T14:37:36;20.40;35.90
2889;DHT22;1453;42.708;23.282;2024-03-23T14:40:04;20.90;36.50
2889;DHT22;1453;42.708;23.282;2024-03-23T14:42:30;20.60;36.70
2889;DHT22;1453;42.708;23.282;2024-03-23T14:44:59;19.70;36.50
2889;DHT22;1453;42.708;23.282;2024-03-23T14:47:28;19.10;37.10
2889;DHT22;1453;42.708;23.282;2024-03-23T14:50:07;18.70;37.30
2889;DHT22;1453;42.708;23.282;2024-03-23T14:52:37;18.80;37.80
2889;DHT22;1453;42.708;23.282;2024-03-23T14:55:03;18.80;37.50
2889;DHT22;1453;42.708;23.282;2024-03-23T14:57:29;18.90;37.80
2889;DHT22;1453;42.708;23.282;2024-03-23T14:59:55;19.20;38.10
2889;DHT22;1453;42.708;23.282;2024-03-23T15:02:21;18.90;37.70
2889;DHT22;1453;42.708;23.282;2024-03-23T15:04:47;18.90;38.20
2889;DHT22;1453;42.708;23.282;2024-03-23T15:07:12;18.90;38.30
2889;DHT22;1453;42.708;23.282;2024-03-23T15:09:38;18.90;37.60
2889;DHT22;1453;42.708;23.282;2024-03-23T15:12:04;19.10;38.40
2889;DHT22;1453;42.708;23.282;2024-03-23T15:14:31;19.10;38.20
2889;DHT22;1453;42.708;23.282;2024-03-23T15:16:56;19.20;38.40
2889;DHT22;1453;42.708;23.282;2024-03-23T15:19:22;18.70;38.50
2889;DHT22;1453;42.708;23.282;2024-03-23T15:21:48;19.10;39.10
2889;DHT22;1453;42.708;23.282;2024-03-23T15:24:14;19.00;38.70
2889;DHT22;1453;42.708;23.282;2024-03-23T15:26:40;19.40;38.20
2889;DHT22;1453;42.708;23.282;2024-03-23T15:29:07;18.90;38.40
2889;DHT22;1453;42.708;23.282;2024-03-23T15:31:42;19.60;39.00
2889;DHT22;1453;42.708;23.282;2024-03-23T15:34:08;19.20;37.80
2889;DHT22;1453;42.708;23.282;2024-03-23T15:36:37;19.50;37.90
2889;DHT22;1453;42.708;23.282;2024-03-23T15:39:06;19.40;37.90
2889;DHT22;1453;42.708;23.282;2024-03-23T15:41:32;19.10;38.20
2889;DHT22;1453;42.708;23.282;2024-03-23T15:43:59;18.80;38.10
2889;DHT22;1453;42.708;23.282;2024-03-23T15:46:25;18.50;38.40
2889;DHT22;1453;42.708;23.282;2024-03-23T15:48:51;18.40;39.60
2889;DHT22;1453;42.708;23.282;2024-03-23T15:51:17;17.80;39.10
2889;DHT22;1453;42.708;23.282;2024-03-23T15:53:46;17.90;39.70
2889;DHT22;1453;42.708;23.282;2024-03-23T15:56:12;18.10;39.20
2889;DHT22;1453;42.708;23.282;2024-03-23T15:58:38;18.10;39.30
2889;DHT22;1453;42.708;23.282;2024-03-23T16:01:08;18.40;39.50
2889;DHT22;1453;42.708;23.282;2024-03-23T16:03:37;18.50;39.60
2889;DHT22;1453;42.708;23.282;2024-03-23T16:06:05;18.20;40.00
2889;DHT22;1453;42.708;23.282;2024-03-23T16:08:35;17.50;39.70
2889;DHT22;1453;42.708;23.282;2024-03-23T16:11:07;17.30;40.10
2889;DHT22;1453;42.708;23.282;2024-03-23T16:13:36;16.90;40.30
2889;DHT22;1453;42.708;23.282;2024-03-23T16:16:03;16.80;40.60
2889;DHT22;1453;42.708;23.282;2024-03-23T16:18:33;16.80;40.60
2889;DHT22;1453;42.708;23.282;2024-03-23T16:21:04;16.80;40.80
2889;DHT22;1453;42.708;23.282;2024-03-23T16:23:35;16.80;40.70
2889;DHT22;1453;42.708;23.282;2024-03-23T16:26:05;16.80;40.80
2889;DHT22;1453;42.708;23.282;2024-03-23T16:28:36;16.50;41.00
2889;DHT22;1453;42.708;23.282;2024-03-23T16:31:08;16.50;41.20
2889;DHT22;1453;42.708;23.282;2024-03-23T16:33:36;16.40;41.30
2889;DHT22;1453;42.708;23.282;2024-03-23T16:36:09;16.40;41.40
2889;DHT22;1453;42.708;23.282;2024-03-23T16:38:40;16.50;41.20
2889;DHT22;1453;42.708;23.282;2024-03-23T16:41:11;16.40;41.50
2889;DHT22;1453;42.708;23.282;2024-03-23T16:43:44;16.30;41.90
2889;DHT22;1453;42.708;23.282;2024-03-23T16:46:12;16.40;41.80
2889;DHT22;1453;42.708;23.282;2024-03-23T16:48:44;16.40;41.60
2889;DHT22;1453;42.708;23.282;2024-03-23T16:51:11;16.40;41.70
2889;DHT22;1453;42.708;23.282;2024-03-23T16:53:38;16.40;41.70
2889;DHT22;1453;42.708;23.282;2024-03-23T16:56:08;16.50;41.90
2889;DHT22;1453;42.708;23.282;2024-03-23T16:58:36;16.20;42.10
2889;DHT22;1453;42.708;23.282;2024-03-23T17:01:08;16.10;42.70